sensor_id;sensor_type;location;lat;lon;timestamp;pressure;altitude;pressure_sealevel;temperature
75431;BMP280;64127;51.488;5.462;2023-05-07T00:00:52;101397.97;;;18.83
75431;BMP280;64127;51.488;5.462;2023-05-07T00:03:25;101393.53;;;18.84
75431;BMP280;64127;51.488;5.462;2023-05-07T00:05:58;101393.53;;;18.84
75431;BMP280;64127;51.488;5.462;2023-05-07T00:08:30;101402.47;;;18.89
75431;BMP280;64127;51.488;5.462;2023-05-07T00:11:02;101401.63;;;18.91
75431;BMP280;64127;51.488;5.462;2023-05-07T00:13:34;101398.13;;;18.92
75431;BMP280;64127;51.488;5.462;2023-05-07T00:16:07;101397.16;;;18.89
75431;BMP280;64127;51.488;5.462;2023-05-07T00:18:39;101397.22;;;18.90
75431;BMP280;64127;51.488;5.462;2023-05-07T00:21:11;101399.91;;;18.93
75431;BMP280;64127;51.488;5.462;2023-05-07T00:23:43;101389.25;;;18.92
75431;BMP280;64127;51.488;5.462;2023-05-07T00:26:16;101386.63;;;18.93
75431;BMP280;64127;51.488;5.462;2023-05-07T00:28:48;101375.94;;;18.92
75431;BMP280;64127;51.488;5.462;2023-05-07T00:31:20;101381.22;;;18.89
75431;BMP280;64127;51.488;5.462;2023-05-07T00:33:52;101382.97;;;18.87
75431;BMP280;64127;51.488;5.462;2023-05-07T00:36:24;101383.84;;;18.86
75431;BMP280;64127;51.488;5.462;2023-05-07T00:39:00;101374.97;;;18.85
75431;BMP280;64127;51.488;5.462;2023-05-07T00:41:33;101366.91;;;18.79
75431;BMP280;64127;51.488;5.462;2023-05-07T00:44:06;101371.41;;;18.83
75431;BMP280;64127;51.488;5.462;2023-05-07T00:46:38;101373.16;;;18.84
75431;BMP280;64127;51.488;5.462;2023-05-07T00:49:11;101368.72;;;18.82
75431;BMP280;64127;51.488;5.462;2023-05-07T00:51:44;101366.94;;;18.84
75431;BMP280;64127;51.488;5.462;2023-05-07T00:54:17;101369.59;;;18.82
75431;BMP280;64127;51.488;5.462;2023-05-07T00:56:49;101369.56;;;18.81
75431;BMP280;64127;51.488;5.462;2023-05-07T00:59:21;101338.22;;;18.60
75431;BMP280;64127;51.488;5.462;2023-05-07T01:01:53;101367.78;;;18.80
75431;BMP280;64127;51.488;5.462;2023-05-07T01:04:26;101373.06;;;18.78
75431;BMP280;64127;51.488;5.462;2023-05-07T01:07:01;101372.13;;;18.74
75431;BMP280;64127;51.488;5.462;2023-05-07T01:09:35;101372.13;;;18.74
75431;BMP280;64127;51.488;5.462;2023-05-07T01:12:08;101363.16;;;18.68
75431;BMP280;64127;51.488;5.462;2023-05-07T01:14:41;101359.66;;;18.70
75431;BMP280;64127;51.488;5.462;2023-05-07T01:17:13;101368.63;;;18.76
75431;BMP280;64127;51.488;5.462;2023-05-07T01:19:45;101371.22;;;18.74
75431;BMP280;64127;51.488;5.462;2023-05-07T01:22:35;101369.38;;;18.70
75431;BMP280;64127;51.488;5.462;2023-05-07T01:25:08;101361.44;;;18.71
75431;BMP280;64127;51.488;5.462;2023-05-07T01:27:40;101361.44;;;18.71
75431;BMP280;64127;51.488;5.462;2023-05-07T01:30:12;101347.31;;;18.72
75431;BMP280;64127;51.488;5.462;2023-05-07T01:33:04;101348.09;;;18.67
75431;BMP280;64127;51.488;5.462;2023-05-07T01:35:43;101340.13;;;18.67
75431;BMP280;64127;51.488;5.462;2023-05-07T01:38:18;101339.25;;;18.68
75431;BMP280;64127;51.488;5.462;2023-05-07T01:40:50;101348.09;;;18.67
75431;BMP280;64127;51.488;5.462;2023-05-07T01:43:23;101348.03;;;18.64
75431;BMP280;64127;51.488;5.462;2023-05-07T01:45:55;101350.72;;;18.65
75431;BMP280;64127;51.488;5.462;2023-05-07T01:48:29;101344.47;;;18.63
75431;BMP280;64127;51.488;5.462;2023-05-07T01:51:02;101347.13;;;18.63
75431;BMP280;64127;51.488;5.462;2023-05-07T01:53:38;101343.63;;;18.64
75431;BMP280;64127;51.488;5.462;2023-05-07T01:56:11;101344.47;;;18.62
75431;BMP280;64127;51.488;5.462;2023-05-07T01:58:44;101339.16;;;18.63
75431;BMP280;64127;51.488;5.462;2023-05-07T02:01:16;101329.38;;;18.59
75431;BMP280;64127;51.488;5.462;2023-05-07T02:03:49;101332.09;;;18.62
75431;BMP280;64127;51.488;5.462;2023-05-07T02:06:21;101332.94;;;18.61
75431;BMP280;64127;51.488;5.462;2023-05-07T02:08:53;101337.34;;;18.59
75431;BMP280;64127;51.488;5.462;2023-05-07T02:11:25;101289.88;;;18.28
75431;BMP280;64127;51.488;5.462;2023-05-07T02:13:57;101336.38;;;18.54
75431;BMP280;64127;51.488;5.462;2023-05-07T02:16:29;101337.22;;;18.53
75431;BMP280;64127;51.488;5.462;2023-05-07T02:19:01;101331.06;;;18.54
75431;BMP280;64127;51.488;5.462;2023-05-07T02:21:33;101340.78;;;18.54
75431;BMP280;64127;51.488;5.462;2023-05-07T02:24:06;101346.94;;;18.51
75431;BMP280;64127;51.488;5.462;2023-05-07T02:26:38;101341.63;;;18.51
75431;BMP280;64127;51.488;5.462;2023-05-07T02:29:10;101344.22;;;18.50
75431;BMP280;64127;51.488;5.462;2023-05-07T02:31:41;101347.75;;;18.49
75431;BMP280;64127;51.488;5.462;2023-05-07T02:34:13;101339.72;;;18.44
75431;BMP280;64127;51.488;5.462;2023-05-07T02:36:45;101352.19;;;18.48
75431;BMP280;64127;51.488;5.462;2023-05-07T02:39:17;101345.06;;;18.47
75431;BMP280;64127;51.488;5.462;2023-05-07T02:41:49;101345.97;;;18.48
75431;BMP280;64127;51.488;5.462;2023-05-07T02:44:21;101344.22;;;18.48
75431;BMP280;64127;51.488;5.462;2023-05-07T02:46:53;101347.72;;;18.47
75431;BMP280;64127;51.488;5.462;2023-05-07T02:49:25;101342.41;;;18.47
75431;BMP280;64127;51.488;5.462;2023-05-07T02:51:57;101349.47;;;18.47
75431;BMP280;64127;51.488;5.462;2023-05-07T02:54:29;101336.97;;;18.40
75431;BMP280;64127;51.488;5.462;2023-05-07T02:57:01;101355.69;;;18.47
75431;BMP280;64127;51.488;5.462;2023-05-07T02:59:33;101350.38;;;18.47
75431;BMP280;64127;51.488;5.462;2023-05-07T03:02:05;101351.22;;;18.46
75431;BMP280;64127;51.488;5.462;2023-05-07T03:04:40;101345.94;;;18.46
75431;BMP280;64127;51.488;5.462;2023-05-07T03:07:12;101348.59;;;18.46
75431;BMP280;64127;51.488;5.462;2023-05-07T03:09:44;101342.41;;;18.46
75431;BMP280;64127;51.488;5.462;2023-05-07T03:12:17;101332.50;;;18.37
75431;BMP280;64127;51.488;5.462;2023-05-07T03:14:49;101343.25;;;18.45
75431;BMP280;64127;51.488;5.462;2023-05-07T03:17:21;101340.56;;;18.42
75431;BMP280;64127;51.488;5.462;2023-05-07T03:19:53;101337.91;;;18.43
75431;BMP280;64127;51.488;5.462;2023-05-07T03:22:25;101336.19;;;18.45
75431;BMP280;64127;51.488;5.462;2023-05-07T03:24:57;101335.25;;;18.43
75431;BMP280;64127;51.488;5.462;2023-05-07T03:27:29;101336.16;;;18.42
75431;BMP280;64127;51.488;5.462;2023-05-07T03:30:01;101332.59;;;18.42
75431;BMP280;64127;51.488;5.462;2023-05-07T03:32:34;101335.25;;;18.43
75431;BMP280;64127;51.488;5.462;2023-05-07T03:35:07;101311.16;;;18.33
75431;BMP280;64127;51.488;5.462;2023-05-07T03:37:39;101335.22;;;18.40
75431;BMP280;64127;51.488;5.462;2023-05-07T03:40:11;101321.03;;;18.40
75431;BMP280;64127;51.488;5.462;2023-05-07T03:42:44;101287.03;;;18.17
75431;BMP280;64127;51.488;5.462;2023-05-07T03:45:16;101329.88;;;18.39
75431;BMP280;64127;51.488;5.462;2023-05-07T03:47:49;101326.38;;;18.41
75431;BMP280;64127;51.488;5.462;2023-05-07T03:50:21;101329.88;;;18.40
75431;BMP280;64127;51.488;5.462;2023-05-07T03:52:53;101328.13;;;18.41
75431;BMP280;64127;51.488;5.462;2023-05-07T03:55:25;101331.69;;;18.41
75431;BMP280;64127;51.488;5.462;2023-05-07T03:57:57;101336.06;;;18.39
75431;BMP280;64127;51.488;5.462;2023-05-07T04:00:29;101334.28;;;18.38
75431;BMP280;64127;51.488;5.462;2023-05-07T04:03:05;101332.59;;;18.43
75431;BMP280;64127;51.488;5.462;2023-05-07T04:05:37;101339.59;;;18.38
75431;BMP280;64127;51.488;5.462;2023-05-07T04:08:09;101340.50;;;18.39
75431;BMP280;64127;51.488;5.462;2023-05-07T04:10:41;101348.44;;;18.37
75431;BMP280;64127;51.488;5.462;2023-05-07T04:13:13;101351.94;;;18.36
75431;BMP280;64127;51.488;5.462;2023-05-07T04:15:45;101354.63;;;18.38
75431;BMP280;64127;51.488;5.462;2023-05-07T04:18:18;101357.25;;;18.36
75431;BMP280;64127;51.488;5.462;2023-05-07T04:20:50;101352.00;;;18.39
75431;BMP280;64127;51.488;5.462;2023-05-07T04:23:22;101362.63;;;18.39
75431;BMP280;64127;51.488;5.462;2023-05-07T04:25:54;101359.94;;;18.38
75431;BMP280;64127;51.488;5.462;2023-05-07T04:28:26;101357.31;;;18.39
75431;BMP280;64127;51.488;5.462;2023-05-07T04:30:58;101368.88;;;18.41
75431;BMP280;64127;51.488;5.462;2023-05-07T04:33:30;101348.34;;;18.31
75431;BMP280;64127;51.488;5.462;2023-05-07T04:36:04;101364.41;;;18.40
75431;BMP280;64127;51.488;5.462;2023-05-07T04:38:36;101369.72;;;18.40
75431;BMP280;64127;51.488;5.462;2023-05-07T04:41:09;101357.31;;;18.39
75431;BMP280;64127;51.488;5.462;2023-05-07T04:43:41;101352.00;;;18.39
75431;BMP280;64127;51.488;5.462;2023-05-07T04:46:13;101357.31;;;18.39
75431;BMP280;64127;51.488;5.462;2023-05-07T04:48:45;101361.75;;;18.39
75431;BMP280;64127;51.488;5.462;2023-05-07T04:51:17;101352.78;;;18.32
75431;BMP280;64127;51.488;5.462;2023-05-07T04:53:50;101354.53;;;18.32
75431;BMP280;64127;51.488;5.462;2023-05-07T04:56:22;101369.66;;;18.37
75431;BMP280;64127;51.488;5.462;2023-05-07T04:58:54;101373.19;;;18.36
75431;BMP280;64127;51.488;5.462;2023-05-07T05:01:26;101369.63;;;18.34
75431;BMP280;64127;51.488;5.462;2023-05-07T05:03:58;101366.91;;;18.33
75431;BMP280;64127;51.488;5.462;2023-05-07T05:06:32;101376.72;;;18.35
75431;BMP280;64127;51.488;5.462;2023-05-07T05:09:04;101379.41;;;18.37
75431;BMP280;64127;51.488;5.462;2023-05-07T05:11:36;101351.63;;;18.18
75431;BMP280;64127;51.488;5.462;2023-05-07T05:14:08;101369.56;;;18.31
75431;BMP280;64127;51.488;5.462;2023-05-07T05:16:40;101368.66;;;18.31
75431;BMP280;64127;51.488;5.462;2023-05-07T05:19:13;101379.41;;;18.37
75431;BMP280;64127;51.488;5.462;2023-05-07T05:21:45;101374.06;;;18.35
75431;BMP280;64127;51.488;5.462;2023-05-07T05:24:17;101381.19;;;18.39
75431;BMP280;64127;51.488;5.462;2023-05-07T05:26:49;101352.59;;;18.21
75431;BMP280;64127;51.488;5.462;2023-05-07T05:29:21;101375.03;;;18.40
75431;BMP280;64127;51.488;5.462;2023-05-07T05:31:53;101393.69;;;18.43
75431;BMP280;64127;51.488;5.462;2023-05-07T05:34:25;101383.94;;;18.44
75431;BMP280;64127;51.488;5.462;2023-05-07T05:36:59;101392.81;;;18.44
75431;BMP280;64127;51.488;5.462;2023-05-07T05:39:31;101394.63;;;18.45
75431;BMP280;64127;51.488;5.462;2023-05-07T05:42:03;101400.81;;;18.46
75431;BMP280;64127;51.488;5.462;2023-05-07T05:44:35;101392.78;;;18.41
75431;BMP280;64127;51.488;5.462;2023-05-07T05:47:07;101410.59;;;18.48
75431;BMP280;64127;51.488;5.462;2023-05-07T05:49:39;101405.28;;;18.48
75431;BMP280;64127;51.488;5.462;2023-05-07T05:52:12;101408.88;;;18.50
75431;BMP280;64127;51.488;5.462;2023-05-07T05:54:45;101401.88;;;18.52
75431;BMP280;64127;51.488;5.462;2023-05-07T05:57:17;101402.72;;;18.53
75431;BMP280;64127;51.488;5.462;2023-05-07T05:59:50;101407.19;;;18.52
75431;BMP280;64127;51.488;5.462;2023-05-07T06:02:22;101403.63;;;18.53
75431;BMP280;64127;51.488;5.462;2023-05-07T06:04:54;101401.91;;;18.55
75431;BMP280;64127;51.488;5.462;2023-05-07T06:07:26;101394.84;;;18.57
75431;BMP280;64127;51.488;5.462;2023-05-07T06:09:58;101401.97;;;18.58
75431;BMP280;64127;51.488;5.462;2023-05-07T06:12:30;101402.81;;;18.57
75431;BMP280;64127;51.488;5.462;2023-05-07T06:15:03;101409.94;;;18.58
75431;BMP280;64127;51.488;5.462;2023-05-07T06:17:35;101395.84;;;18.62
75431;BMP280;64127;51.488;5.462;2023-05-07T06:20:08;101400.25;;;18.63
75431;BMP280;64127;51.488;5.462;2023-05-07T06:22:40;101397.66;;;18.65
75431;BMP280;64127;51.488;5.462;2023-05-07T06:25:12;101405.66;;;18.68
75431;BMP280;64127;51.488;5.462;2023-05-07T06:27:44;101403.06;;;18.71
75431;BMP280;64127;51.488;5.462;2023-05-07T06:30:16;101398.59;;;18.68
75431;BMP280;64127;51.488;5.462;2023-05-07T06:32:48;101407.47;;;18.70
75431;BMP280;64127;51.488;5.462;2023-05-07T06:35:21;101403.91;;;18.70
75431;BMP280;64127;51.488;5.462;2023-05-07T06:37:52;101401.25;;;18.70
75431;BMP280;64127;51.488;5.462;2023-05-07T06:40:25;101404.91;;;18.75
75431;BMP280;64127;51.488;5.462;2023-05-07T06:42:57;101412.06;;;18.81
75431;BMP280;64127;51.488;5.462;2023-05-07T06:45:28;101408.59;;;18.83
75431;BMP280;64127;51.488;5.462;2023-05-07T06:48:01;101409.47;;;18.82
75431;BMP280;64127;51.488;5.462;2023-05-07T06:50:33;101416.53;;;18.82
75431;BMP280;64127;51.488;5.462;2023-05-07T06:53:04;101420.03;;;18.81
75431;BMP280;64127;51.488;5.462;2023-05-07T06:55:36;101416.59;;;18.85
75431;BMP280;64127;51.488;5.462;2023-05-07T06:58:10;101410.31;;;18.81
75431;BMP280;64127;51.488;5.462;2023-05-07T07:00:41;101413.94;;;18.85
75431;BMP280;64127;51.488;5.462;2023-05-07T07:03:13;101417.53;;;18.87
75431;BMP280;64127;51.488;5.462;2023-05-07T07:05:45;101423.69;;;18.86
75431;BMP280;64127;51.488;5.462;2023-05-07T07:08:17;101431.75;;;18.90
75431;BMP280;64127;51.488;5.462;2023-05-07T07:10:49;101426.44;;;18.92
75431;BMP280;64127;51.488;5.462;2023-05-07T07:13:21;101438.03;;;18.94
75431;BMP280;64127;51.488;5.462;2023-05-07T07:15:53;101433.63;;;18.97
75431;BMP280;64127;51.488;5.462;2023-05-07T07:18:25;101417.63;;;18.94
75431;BMP280;64127;51.488;5.462;2023-05-07T07:20:57;101434.59;;;19.02
75431;BMP280;64127;51.488;5.462;2023-05-07T07:23:29;101423.16;;;19.06
75431;BMP280;64127;51.488;5.462;2023-05-07T07:26:01;101424.06;;;19.07
75431;BMP280;64127;51.488;5.462;2023-05-07T07:28:33;101432.06;;;19.10
75431;BMP280;64127;51.488;5.462;2023-05-07T07:31:05;101407.94;;;18.98
75431;BMP280;64127;51.488;5.462;2023-05-07T07:33:37;101432.97;;;19.12
75431;BMP280;64127;51.488;5.462;2023-05-07T07:36:09;101440.16;;;19.16
75431;BMP280;64127;51.488;5.462;2023-05-07T07:38:41;101440.19;;;19.17
75431;BMP280;64127;51.488;5.462;2023-05-07T07:41:13;101449.19;;;19.27
75431;BMP280;64127;51.488;5.462;2023-05-07T07:43:46;101445.63;;;19.28
75431;BMP280;64127;51.488;5.462;2023-05-07T07:46:21;101411.72;;;19.10
75431;BMP280;64127;51.488;5.462;2023-05-07T07:48:53;101444.00;;;19.36
75431;BMP280;64127;51.488;5.462;2023-05-07T07:51:25;101444.91;;;19.37
75431;BMP280;64127;51.488;5.462;2023-05-07T07:53:58;101453.03;;;19.44
75431;BMP280;64127;51.488;5.462;2023-05-07T07:56:32;101442.44;;;19.47
75431;BMP280;64127;51.488;5.462;2023-05-07T07:59:05;101422.84;;;19.42
75431;BMP280;64127;51.488;5.462;2023-05-07T08:01:37;101448.81;;;19.60
75431;BMP280;64127;51.488;5.462;2023-05-07T08:04:09;101444.44;;;19.63
75431;BMP280;64127;51.488;5.462;2023-05-07T08:06:42;101443.66;;;19.70
75431;BMP280;64127;51.488;5.462;2023-05-07T08:09:14;101446.38;;;19.75
75431;BMP280;64127;51.488;5.462;2023-05-07T08:11:46;101436.72;;;19.82
75431;BMP280;64127;51.488;5.462;2023-05-07T08:14:18;101435.00;;;19.87
75431;BMP280;64127;51.488;5.462;2023-05-07T08:16:50;101412.72;;;19.79
75431;BMP280;64127;51.488;5.462;2023-05-07T08:19:22;101448.53;;;20.05
75431;BMP280;64127;51.488;5.462;2023-05-07T08:21:57;101411.13;;;19.93
75431;BMP280;64127;51.488;5.462;2023-05-07T08:24:29;101452.22;;;20.13
75431;BMP280;64127;51.488;5.462;2023-05-07T08:27:02;101445.13;;;20.15
75431;BMP280;64127;51.488;5.462;2023-05-07T08:29:34;101452.41;;;20.28
75431;BMP280;64127;51.488;5.462;2023-05-07T08:32:06;101454.13;;;20.26
75431;BMP280;64127;51.488;5.462;2023-05-07T08:34:38;101450.66;;;20.30
75431;BMP280;64127;51.488;5.462;2023-05-07T08:37:11;101455.97;;;20.27
75431;BMP280;64127;51.488;5.462;2023-05-07T08:39:43;101457.72;;;20.28
75431;BMP280;64127;51.488;5.462;2023-05-07T08:42:17;101461.34;;;20.33
75431;BMP280;64127;51.488;5.462;2023-05-07T08:44:51;101456.03;;;20.33
75431;BMP280;64127;51.488;5.462;2023-05-07T08:47:34;101461.38;;;20.36
75431;BMP280;64127;51.488;5.462;2023-05-07T08:50:07;101460.56;;;20.40
75431;BMP280;64127;51.488;5.462;2023-05-07T08:52:43;101457.91;;;20.43
75431;BMP280;64127;51.488;5.462;2023-05-07T08:55:15;101464.16;;;20.44
75431;BMP280;64127;51.488;5.462;2023-05-07T08:57:47;101429.22;;;20.24
75431;BMP280;64127;51.488;5.462;2023-05-07T09:00:20;101459.72;;;20.44
75431;BMP280;64127;51.488;5.462;2023-05-07T09:02:53;101458.78;;;20.41
75431;BMP280;64127;51.488;5.462;2023-05-07T09:05:25;101459.75;;;20.47
75431;BMP280;64127;51.488;5.462;2023-05-07T09:08:02;101456.22;;;20.50
75431;BMP280;64127;51.488;5.462;2023-05-07T09:10:34;101451.78;;;20.50
75431;BMP280;64127;51.488;5.462;2023-05-07T09:13:06;101462.59;;;20.64
75431;BMP280;64127;51.488;5.462;2023-05-07T09:15:38;101460.81;;;20.64
75431;BMP280;64127;51.488;5.462;2023-05-07T09:18:10;101460.00;;;20.71
75431;BMP280;64127;51.488;5.462;2023-05-07T09:20:43;101433.25;;;20.62
75431;BMP280;64127;51.488;5.462;2023-05-07T09:23:16;101449.38;;;20.74
75431;BMP280;64127;51.488;5.462;2023-05-07T09:25:48;101459.31;;;20.92
75431;BMP280;64127;51.488;5.462;2023-05-07T09:28:20;101467.34;;;21.00
75431;BMP280;64127;51.488;5.462;2023-05-07T09:30:52;101466.63;;;21.11
75431;BMP280;64127;51.488;5.462;2023-05-07T09:33:27;101456.88;;;21.18
75431;BMP280;64127;51.488;5.462;2023-05-07T09:36:03;101462.34;;;21.33
75431;BMP280;64127;51.488;5.462;2023-05-07T09:38:37;101464.19;;;21.43
75431;BMP280;64127;51.488;5.462;2023-05-07T09:41:12;101457.13;;;21.51
75431;BMP280;64127;51.488;5.462;2023-05-07T09:43:44;101473.19;;;21.59
75431;BMP280;64127;51.488;5.462;2023-05-07T09:46:17;101464.34;;;21.66
75431;BMP280;64127;51.488;5.462;2023-05-07T09:48:57;101449.19;;;21.65
75431;BMP280;64127;51.488;5.462;2023-05-07T09:51:47;101467.94;;;21.75
75431;BMP280;64127;51.488;5.462;2023-05-07T09:54:19;101460.88;;;21.84
75431;BMP280;64127;51.488;5.462;2023-05-07T09:56:52;101425.19;;;21.69
75431;BMP280;64127;51.488;5.462;2023-05-07T09:59:27;101448.41;;;21.78
75431;BMP280;64127;51.488;5.462;2023-05-07T10:02:01;101469.88;;;21.92
75431;BMP280;64127;51.488;5.462;2023-05-07T10:04:36;101458.28;;;21.91
75431;BMP280;64127;51.488;5.462;2023-05-07T10:07:09;101459.22;;;21.95
75431;BMP280;64127;51.488;5.462;2023-05-07T10:09:42;101462.78;;;22.03
75431;BMP280;64127;51.488;5.462;2023-05-07T10:12:17;101463.72;;;22.12
75431;BMP280;64127;51.488;5.462;2023-05-07T10:14:52;101470.00;;;22.19
75431;BMP280;64127;51.488;5.462;2023-05-07T10:17:26;101457.53;;;22.21
75431;BMP280;64127;51.488;5.462;2023-05-07T10:19:59;101461.13;;;22.35
75431;BMP280;64127;51.488;5.462;2023-05-07T10:22:43;101429.94;;;22.28
75431;BMP280;64127;51.488;5.462;2023-05-07T10:25:28;101462.97;;;22.57
75431;BMP280;64127;51.488;5.462;2023-05-07T10:28:07;101457.69;;;22.66
75431;BMP280;64127;51.488;5.462;2023-05-07T10:31:08;101455.00;;;22.74
75431;BMP280;64127;51.488;5.462;2023-05-07T10:33:46;101455.91;;;23.02
75431;BMP280;64127;51.488;5.462;2023-05-07T10:36:21;101456.81;;;23.22
75431;BMP280;64127;51.488;5.462;2023-05-07T10:38:54;101454.16;;;23.25
75431;BMP280;64127;51.488;5.462;2023-05-07T10:41:26;101458.59;;;23.37
75431;BMP280;64127;51.488;5.462;2023-05-07T10:43:58;101462.19;;;23.46
75431;BMP280;64127;51.488;5.462;2023-05-07T10:46:33;101457.72;;;23.51
75431;BMP280;64127;51.488;5.462;2023-05-07T10:49:07;101438.94;;;23.53
75431;BMP280;64127;51.488;5.462;2023-05-07T10:51:39;101457.69;;;23.63
75431;BMP280;64127;51.488;5.462;2023-05-07T10:56:44;101461.25;;;23.68
75431;BMP280;64127;51.488;5.462;2023-05-07T11:02:03;101458.56;;;23.71
75431;BMP280;64127;51.488;5.462;2023-05-07T11:04:38;101452.34;;;23.65
75431;BMP280;64127;51.488;5.462;2023-05-07T11:07:29;101463.03;;;23.71
75431;BMP280;64127;51.488;5.462;2023-05-07T11:10:02;101461.25;;;23.73
75431;BMP280;64127;51.488;5.462;2023-05-07T11:15:13;101457.66;;;23.71
75431;BMP280;64127;51.488;5.462;2023-05-07T11:17:57;101455.91;;;23.68
75431;BMP280;64127;51.488;5.462;2023-05-07T11:21:00;101460.34;;;23.68
75431;BMP280;64127;51.488;5.462;2023-05-07T11:26:10;101458.56;;;23.67
75431;BMP280;64127;51.488;5.462;2023-05-07T11:28:43;101464.81;;;23.67
75431;BMP280;64127;51.488;5.462;2023-05-07T11:31:22;101455.91;;;23.56
75431;BMP280;64127;51.488;5.462;2023-05-07T11:33:55;101455.91;;;23.64
75431;BMP280;64127;51.488;5.462;2023-05-07T11:36:32;101461.25;;;23.68
75431;BMP280;64127;51.488;5.462;2023-05-07T11:39:04;101459.47;;;23.69
75431;BMP280;64127;51.488;5.462;2023-05-07T11:41:37;101462.13;;;23.72
75431;BMP280;64127;51.488;5.462;2023-05-07T11:44:09;101459.44;;;23.73
75431;BMP280;64127;51.488;5.462;2023-05-07T11:46:43;101455.88;;;23.71
75431;BMP280;64127;51.488;5.462;2023-05-07T11:49:18;101451.47;;;23.63
75431;BMP280;64127;51.488;5.462;2023-05-07T11:51:50;101453.22;;;23.65
75431;BMP280;64127;51.488;5.462;2023-05-07T11:54:22;101461.25;;;23.65
75431;BMP280;64127;51.488;5.462;2023-05-07T11:56:56;101455.00;;;23.65
75431;BMP280;64127;51.488;5.462;2023-05-07T11:59:28;101453.22;;;23.68
75431;BMP280;64127;51.488;5.462;2023-05-07T12:02:00;101459.44;;;23.70
75431;BMP280;64127;51.488;5.462;2023-05-07T12:04:32;101456.78;;;23.67
75431;BMP280;64127;51.488;5.462;2023-05-07T12:07:04;101442.53;;;23.59
75431;BMP280;64127;51.488;5.462;2023-05-07T12:09:37;101455.91;;;23.56
75431;BMP280;64127;51.488;5.462;2023-05-07T12:12:09;101453.25;;;23.43
75431;BMP280;64127;51.488;5.462;2023-05-07T12:14:42;101439.88;;;23.32
75431;BMP280;64127;51.488;5.462;2023-05-07T12:17:16;101450.56;;;23.37
75431;BMP280;64127;51.488;5.462;2023-05-07T12:19:49;101460.41;;;23.32
75431;BMP280;64127;51.488;5.462;2023-05-07T12:22:22;101457.72;;;23.21
75431;BMP280;64127;51.488;5.462;2023-05-07T12:24:58;101471.09;;;23.16
75431;BMP280;64127;51.488;5.462;2023-05-07T12:27:31;101470.22;;;23.10
75431;BMP280;64127;51.488;5.462;2023-05-07T12:30:03;101470.22;;;23.04
75431;BMP280;64127;51.488;5.462;2023-05-07T12:32:36;101491.59;;;22.95
75431;BMP280;64127;51.488;5.462;2023-05-07T12:35:08;101507.63;;;22.73
75431;BMP280;64127;51.488;5.462;2023-05-07T12:37:41;101522.59;;;22.37
75431;BMP280;64127;51.488;5.462;2023-05-07T12:40:14;101519.72;;;21.90
75431;BMP280;64127;51.488;5.462;2023-05-07T12:42:46;101513.25;;;21.59
75431;BMP280;64127;51.488;5.462;2023-05-07T12:45:18;101519.25;;;21.29
75431;BMP280;64127;51.488;5.462;2023-05-07T12:47:50;101525.16;;;20.99
75431;BMP280;64127;51.488;5.462;2023-05-07T12:50:23;101539.09;;;20.74
75431;BMP280;64127;51.488;5.462;2023-05-07T12:52:55;101539.75;;;20.53
75431;BMP280;64127;51.488;5.462;2023-05-07T12:55:29;101551.06;;;20.36
75431;BMP280;64127;51.488;5.462;2023-05-07T12:58:05;101548.13;;;20.16
75431;BMP280;64127;51.488;5.462;2023-05-07T13:00:38;101570.28;;;20.15
75431;BMP280;64127;51.488;5.462;2023-05-07T13:03:11;101570.19;;;20.07
75431;BMP280;64127;51.488;5.462;2023-05-07T13:05:43;101580.88;;;20.10
75431;BMP280;64127;51.488;5.462;2023-05-07T13:08:25;101584.38;;;20.06
75431;BMP280;64127;51.488;5.462;2023-05-07T13:10:59;101585.25;;;20.05
75431;BMP280;64127;51.488;5.462;2023-05-07T13:13:37;101586.16;;;20.07
75431;BMP280;64127;51.488;5.462;2023-05-07T13:16:11;101588.84;;;20.10
75431;BMP280;64127;51.488;5.462;2023-05-07T13:18:43;101588.84;;;20.09
75431;BMP280;64127;51.488;5.462;2023-05-07T13:21:17;101591.47;;;20.07
75431;BMP280;64127;51.488;5.462;2023-05-07T13:23:49;101576.25;;;19.96
75431;BMP280;64127;51.488;5.462;2023-05-07T13:26:21;101590.66;;;20.11
75431;BMP280;64127;51.488;5.462;2023-05-07T13:28:57;101590.84;;;20.23
75431;BMP280;64127;51.488;5.462;2023-05-07T13:31:30;101586.59;;;20.36
75431;BMP280;64127;51.488;5.462;2023-05-07T13:34:02;101585.00;;;20.49
75431;BMP280;64127;51.488;5.462;2023-05-07T13:36:34;101591.44;;;20.64
75431;BMP280;64127;51.488;5.462;2023-05-07T13:39:08;101583.56;;;20.75
75431;BMP280;64127;51.488;5.462;2023-05-07T13:41:40;101556.09;;;20.84
75431;BMP280;64127;51.488;5.462;2023-05-07T13:44:12;101578.69;;;21.14
75431;BMP280;64127;51.488;5.462;2023-05-07T13:46:44;101580.53;;;21.21
75431;BMP280;64127;51.488;5.462;2023-05-07T13:49:16;101582.34;;;21.27
75431;BMP280;64127;51.488;5.462;2023-05-07T13:51:49;101544.88;;;21.13
75431;BMP280;64127;51.488;5.462;2023-05-07T13:54:20;101573.56;;;21.37
75431;BMP280;64127;51.488;5.462;2023-05-07T13:56:52;101579.91;;;21.50
75431;BMP280;64127;51.488;5.462;2023-05-07T13:59:25;101582.66;;;21.59
75431;BMP280;64127;51.488;5.462;2023-05-07T14:01:56;101583.53;;;21.59
75431;BMP280;64127;51.488;5.462;2023-05-07T14:04:30;101579.09;;;21.61
75431;BMP280;64127;51.488;5.462;2023-05-07T14:07:02;101580.31;;;22.00
75431;BMP280;64127;51.488;5.462;2023-05-07T14:09:34;101570.34;;;21.79
75431;BMP280;64127;51.488;5.462;2023-05-07T14:12:07;101566.75;;;21.74
75431;BMP280;64127;51.488;5.462;2023-05-07T14:14:39;101573.03;;;21.78
75431;BMP280;64127;51.488;5.462;2023-05-07T14:17:11;101573.03;;;21.81
75431;BMP280;64127;51.488;5.462;2023-05-07T14:19:44;101574.78;;;21.79
75431;BMP280;64127;51.488;5.462;2023-05-07T14:22:16;101580.09;;;21.75
75431;BMP280;64127;51.488;5.462;2023-05-07T14:24:49;101573.88;;;21.75
75431;BMP280;64127;51.488;5.462;2023-05-07T14:27:37;101578.28;;;21.71
75431;BMP280;64127;51.488;5.462;2023-05-07T14:30:09;101579.22;;;21.75
75431;BMP280;64127;51.488;5.462;2023-05-07T14:32:41;101579.25;;;21.77
75431;BMP280;64127;51.488;5.462;2023-05-07T14:35:13;101584.56;;;21.77
75431;BMP280;64127;51.488;5.462;2023-05-07T14:37:46;101581.91;;;21.77
75431;BMP280;64127;51.488;5.462;2023-05-07T14:40:18;101578.38;;;21.78